Time;durP1;ratioP1;P1;durP2;ratioP2;P2;SDS_P1;SDS_P2;PMS_P1;PMS_P2;Temp;Humidity;BMP_temperature;BMP_pressure;BME280_temperature;BME280_humidity;BME280_pressure;Samples;Min_cycle;Max_cycle;Signal;HPM_P1;HPM_P2
2023/12/06 00:02:04;;;;;;;0.97;0.63;;;;;;;-145.69;56.07;52301.81;5092276;28;20182;-81
2023/12/06 00:04:32;;;;;;;0.53;0.47;;;;;;;-145.69;56.26;52323.59;5091756;28;20206;-81
2023/12/06 00:06:58;;;;;;;0.50;0.50;;;;;;;-145.69;56.07;52325.56;5091975;28;20209;-81
2023/12/06 00:09:25;;;;;;;0.50;0.50;;;;;;;-145.69;56.15;52317.66;5091733;28;20234;-81
2023/12/06 00:11:52;;;;;;;0.97;0.40;;;;;;;-145.69;56.21;52311.69;5091778;28;20195;-81
2023/12/06 00:14:18;;;;;;;0.67;0.57;;;;;;;-145.69;56.10;52317.66;5092604;28;20209;-81
2023/12/06 00:16:45;;;;;;;0.77;0.70;;;;;;;-145.69;56.50;52335.47;5092647;28;20663;-81
2023/12/06 00:19:11;;;;;;;0.77;0.77;;;;;;;-145.69;56.47;52309.72;5094782;28;20222;-81
2023/12/06 00:21:39;;;;;;;0.50;0.50;;;;;;;-145.69;56.05;52325.56;5094426;28;20199;-81
2023/12/06 00:24:07;;;;;;;1.37;0.63;;;;;;;-145.69;56.16;52285.97;5095207;28;20649;-81
2023/12/06 00:26:34;;;;;;;0.70;0.70;;;;;;;-145.69;56.36;52345.38;5094359;28;20228;-81
2023/12/06 00:29:01;;;;;;;0.40;0.40;;;;;;;-145.69;56.56;52319.63;5094240;28;20206;-81
2023/12/06 00:31:28;;;;;;;0.40;0.40;;;;;;;-145.69;56.40;52325.56;5094206;28;20196;-81
2023/12/06 00:33:55;;;;;;;0.60;0.50;;;;;;;-145.69;56.49;52339.44;5091091;28;20565;-81
2023/12/06 00:36:21;;;;;;;0.40;0.40;;;;;;;-145.69;55.99;52329.53;5092689;28;20263;-81
2023/12/06 00:38:49;;;;;;;0.60;0.60;;;;;;;-145.69;56.09;52282.00;5092384;28;20191;-81
2023/12/06 00:41:16;;;;;;;0.60;0.60;;;;;;;-145.69;56.14;52331.50;5091961;28;20231;-81
2023/12/06 00:43:42;;;;;;;0.50;0.50;;;;;;;-145.69;56.21;52319.63;5081001;28;20313;-81
2023/12/06 00:46:09;;;;;;;0.40;0.40;;;;;;;-145.69;56.30;52329.53;5071257;28;20199;-81
2023/12/06 00:48:35;;;;;;;0.47;0.47;;;;;;;-145.69;56.46;52329.53;5071029;28;20206;-81
2023/12/06 00:51:02;;;;;;;0.30;0.30;;;;;;;-145.69;56.35;52295.84;5077327;28;20650;-81
2023/12/06 00:53:30;;;;;;;0.60;0.60;;;;;;;-145.69;56.52;52280.00;5092838;28;20231;-81
2023/12/06 00:55:57;;;;;;;0.53;0.43;;;;;;;-145.69;56.02;52305.75;5093470;28;20191;-81
2023/12/06 00:58:24;;;;;;;0.40;0.40;;;;;;;-145.69;56.29;52363.19;5093469;28;20203;-81
2023/12/06 01:00:50;;;;;;;0.30;0.30;;;;;;;-145.69;55.64;52321.59;5092749;28;20618;-81
2023/12/06 01:03:17;;;;;;;0.67;0.50;;;;;;;-145.69;56.39;52327.53;5091785;28;20195;-81
2023/12/06 01:05:44;;;;;;;0.40;0.40;;;;;;;-145.69;55.87;52327.53;5091726;28;20636;-81
2023/12/06 01:08:10;;;;;;;0.77;0.50;;;;;;;-145.69;56.11;52349.31;5091329;28;20262;-81
2023/12/06 01:10:37;;;;;;;0.60;0.60;;;;;;;-145.69;56.37;52301.81;5091137;28;20318;-81
2023/12/06 01:13:04;;;;;;;0.40;0.40;;;;;;;-145.69;55.94;52345.38;5091330;28;20644;-81
2023/12/06 01:15:31;;;;;;;0.40;0.40;;;;;;;-145.69;56.12;52341.41;5091465;28;20195;-81
2023/12/06 01:17:57;;;;;;;0.50;0.50;;;;;;;-145.69;56.10;52309.72;5089931;28;20195;-81
2023/12/06 01:20:24;;;;;;;0.43;0.43;;;;;;;-145.69;56.25;52351.31;5090466;28;20226;-81
2023/12/06 01:22:50;;;;;;;0.50;0.50;;;;;;;-145.69;56.16;52341.41;5090731;28;20206;-81
2023/12/06 01:25:17;;;;;;;0.50;0.50;;;;;;;-145.69;56.12;52341.41;5088289;28;20203;-81
2023/12/06 01:27:43;;;;;;;0.50;0.50;;;;;;;-145.69;56.56;52345.38;5088642;28;20851;-81
2023/12/06 01:30:12;;;;;;;0.37;0.33;;;;;;;-145.69;56.28;52333.47;5090348;28;20186;-81
2023/12/06 01:32:39;;;;;;;1.07;0.60;;;;;;;-145.69;55.89;52309.72;5090002;28;20194;-81
2023/12/06 01:35:07;;;;;;;0.40;0.40;;;;;;;-145.69;56.16;52333.47;5084347;28;20199;-81
2023/12/06 01:37:34;;;;;;;0.40;0.40;;;;;;;-145.69;57.48;52337.44;5086977;28;20426;-81
2023/12/06 01:40:00;;;;;;;0.50;0.50;;;;;;;-145.69;56.22;52293.88;5089229;28;20616;-81
2023/12/06 01:42:27;;;;;;;0.53;0.50;;;;;;;-145.69;56.51;52301.81;5087673;28;20203;-81
2023/12/06 01:44:53;;;;;;;0.50;0.50;;;;;;;-145.69;55.97;52313.69;5089268;28;20214;-81
2023/12/06 01:47:23;;;;;;;0.50;0.50;;;;;;;-145.69;56.52;52327.53;5086501;28;20203;-81
2023/12/06 01:49:50;;;;;;;0.57;0.50;;;;;;;-145.69;56.47;52301.81;5088475;28;20205;-81
2023/12/06 01:52:16;;;;;;;0.63;0.63;;;;;;;-145.69;56.43;52305.75;5088197;28;20202;-81
2023/12/06 01:54:43;;;;;;;0.40;0.40;;;;;;;-145.69;56.39;52329.53;5089365;28;20198;-81
2023/12/06 01:57:10;;;;;;;0.50;0.50;;;;;;;-145.69;56.47;52349.31;5088829;28;20731;-81
2023/12/06 01:59:39;;;;;;;0.40;0.40;;;;;;;-145.69;56.93;52293.88;5087589;28;20189;-81
2023/12/06 02:02:06;;;;;;;0.83;0.60;;;;;;;-145.69;56.45;52309.72;5088391;28;20190;-82
2023/12/06 02:04:34;;;;;;;0.50;0.50;;;;;;;-145.69;56.22;52283.97;5087815;28;20198;-81
2023/12/06 02:07:01;;;;;;;0.40;0.40;;;;;;;-145.69;56.34;52329.53;5087567;28;20194;-81
2023/12/06 02:09:29;;;;;;;0.60;0.60;;;;;;;-145.69;56.90;52305.75;5087059;28;20314;-81
2023/12/06 02:11:55;;;;;;;0.40;0.40;;;;;;;-145.69;56.50;52345.38;5085135;28;20199;-82
2023/12/06 02:14:22;;;;;;;0.63;0.60;;;;;;;-145.69;56.44;52339.44;5087316;28;20254;-81
2023/12/06 02:16:49;;;;;;;0.83;0.33;;;;;;;-145.69;56.32;52303.78;5087133;28;20194;-82
2023/12/06 02:19:20;;;;;;;0.40;0.40;;;;;;;-145.69;56.20;52351.31;5084534;28;20203;-82
2023/12/06 02:21:50;;;;;;;0.40;0.40;;;;;;;-145.69;56.80;52321.59;5085269;28;20207;-82
2023/12/06 02:24:18;;;;;;;0.40;0.40;;;;;;;-145.69;56.59;52323.59;5086165;28;20194;-82
2023/12/06 02:26:46;;;;;;;0.50;0.43;;;;;;;-145.69;56.36;52323.59;5085591;28;20202;-82
2023/12/06 02:29:12;;;;;;;0.40;0.40;;;;;;;-145.69;56.38;52345.38;5084508;28;20214;-82
2023/12/06 02:31:39;;;;;;;0.60;0.50;;;;;;;-145.69;56.25;52317.66;5085657;28;20649;-82
2023/12/06 02:34:08;;;;;;;0.53;0.40;;;;;;;-145.69;56.62;52333.47;5086708;28;20202;-82
2023/12/06 02:36:40;;;;;;;0.50;0.50;;;;;;;-145.69;56.30;52353.28;5085646;28;20206;-82
2023/12/06 02:39:09;;;;;;;1.07;0.53;;;;;;;-145.69;56.65;52333.47;5084798;28;20195;-82
2023/12/06 02:41:35;;;;;;;0.47;0.47;;;;;;;-145.69;56.36;52285.97;5083497;28;20693;-82
2023/12/06 02:44:03;;;;;;;1.07;0.60;;;;;;;-145.69;56.57;52333.47;5085127;28;20217;-82
2023/12/06 02:46:30;;;;;;;0.40;0.40;;;;;;;-145.69;56.52;52325.56;5085946;28;20206;-82
2023/12/06 02:48:57;;;;;;;0.50;0.50;;;;;;;-145.69;56.30;52323.59;5084081;28;20244;-82
2023/12/06 02:51:24;;;;;;;0.43;0.40;;;;;;;-145.69;56.77;52335.47;5086187;28;20203;-82
2023/12/06 02:53:50;;;;;;;0.70;0.43;;;;;;;-145.69;57.20;52325.56;5081586;28;20198;-82
2023/12/06 02:56:17;;;;;;;0.40;0.40;;;;;;;-145.69;56.46;52327.53;5083245;28;20202;-82
2023/12/06 02:58:43;;;;;;;0.50;0.50;;;;;;;-145.69;56.55;52339.44;5083461;28;20202;-82
2023/12/06 03:01:11;;;;;;;0.40;0.40;;;;;;;-145.69;56.60;52333.47;5082554;28;20230;-82
2023/12/06 03:03:37;;;;;;;0.40;0.40;;;;;;;-145.69;56.32;52339.44;5084286;28;20217;-82
2023/12/06 03:06:04;;;;;;;0.67;0.50;;;;;;;-145.69;56.46;52317.66;5084299;28;20207;-82
2023/12/06 03:08:31;;;;;;;0.67;0.67;;;;;;;-145.69;56.36;52291.91;5070549;28;20737;-82
2023/12/06 03:10:57;;;;;;;0.43;0.43;;;;;;;-145.69;56.41;52331.50;5063953;28;20207;-82
2023/12/06 03:13:24;;;;;;;0.40;0.40;;;;;;;-145.69;56.28;52357.25;5062786;28;20199;-82
2023/12/06 03:15:50;;;;;;;0.50;0.50;;;;;;;-145.69;56.32;52282.00;5064733;28;20196;-82
2023/12/06 03:18:18;;;;;;;0.87;0.70;;;;;;;-145.69;56.20;52337.44;5083526;28;20191;-82
2023/12/06 03:20:45;;;;;;;0.50;0.50;;;;;;;-145.69;56.97;52359.22;5082085;28;20226;-82
2023/12/06 03:23:11;;;;;;;0.67;0.60;;;;;;;-145.69;56.21;52331.50;5084511;28;20625;-82
2023/12/06 03:25:38;;;;;;;0.50;0.50;;;;;;;-145.69;56.71;52327.53;5069313;28;20209;-82
2023/12/06 03:28:05;;;;;;;0.50;0.50;;;;;;;-145.69;56.87;52321.59;5064872;28;20206;-82
2023/12/06 03:30:31;;;;;;;0.40;0.40;;;;;;;-145.69;56.98;52341.41;5064682;28;20783;-82
2023/12/06 03:32:58;;;;;;;0.40;0.40;;;;;;;-145.69;56.65;52339.44;5064022;28;20203;-82
2023/12/06 03:35:26;;;;;;;0.63;0.57;;;;;;;-145.69;56.88;52305.75;5065265;28;20191;-82
2023/12/06 03:37:52;;;;;;;0.40;0.40;;;;;;;-145.69;56.60;52349.31;5064266;28;20199;-83
2023/12/06 03:40:19;;;;;;;0.40;0.40;;;;;;;-145.69;56.62;52317.66;5065350;28;20219;-82
2023/12/06 03:42:45;;;;;;;0.60;0.60;;;;;;;-145.69;56.62;52327.53;5067176;28;20226;-82
2023/12/06 03:45:15;;;;;;;0.50;0.50;;;;;;;-145.69;56.74;52329.53;5066383;28;20668;-82
2023/12/06 03:47:41;;;;;;;0.50;0.50;;;;;;;-145.69;56.72;52329.53;5083578;28;20219;-82
2023/12/06 03:50:08;;;;;;;0.40;0.40;;;;;;;-145.69;57.08;52329.53;5087634;28;20222;-82
2023/12/06 03:52:36;;;;;;;0.30;0.30;;;;;;;-145.69;56.75;52317.66;5090975;28;20203;-82
2023/12/06 03:55:03;;;;;;;0.50;0.50;;;;;;;-145.69;56.70;52317.66;5089849;28;20262;-82
2023/12/06 03:57:29;;;;;;;0.60;0.50;;;;;;;-145.69;56.48;52341.41;5090213;28;20285;-82
2023/12/06 03:59:56;;;;;;;0.90;0.40;;;;;;;-145.69;56.26;52345.38;5084306;28;20199;-82
2023/12/06 04:02:23;;;;;;;0.50;0.50;;;;;;;-145.69;56.43;52321.59;5097417;28;20229;-83
2023/12/06 04:04:49;;;;;;;0.40;0.40;;;;;;;-145.69;56.30;52345.38;5092461;28;20270;-82
2023/12/06 04:07:16;;;;;;;0.40;0.40;;;;;;;-145.69;56.17;52329.53;5084587;28;20202;-82
2023/12/06 04:09:44;;;;;;;0.50;0.50;;;;;;;-145.69;56.02;52327.53;5086934;28;20304;-82
2023/12/06 04:12:10;;;;;;;0.50;0.50;;;;;;;-145.69;56.10;52317.66;5085915;28;20590;-82
2023/12/06 04:14:37;;;;;;;0.50;0.50;;;;;;;-145.69;55.60;52323.59;5086927;28;20183;-82
2023/12/06 04:17:03;;;;;;;0.40;0.40;;;;;;;-145.69;55.57;52317.66;5082976;28;20206;-83
2023/12/06 04:19:30;;;;;;;0.67;0.43;;;;;;;-145.69;55.49;52355.28;5084334;28;20293;-82
2023/12/06 04:21:56;;;;;;;0.50;0.50;;;;;;;-145.69;55.35;52313.69;5084837;28;20231;-82
2023/12/06 04:24:23;;;;;;;0.85;0.50;;;;;;;-145.69;56.27;52301.81;5084435;28;20786;-82
2023/12/06 04:26:51;;;;;;;0.47;0.40;;;;;;;-145.69;56.07;52319.63;5084454;28;20650;-82
2023/12/06 04:29:17;;;;;;;0.50;0.50;;;;;;;-145.69;55.93;52363.19;5087282;28;20281;-82
2023/12/06 04:31:44;;;;;;;0.70;0.70;;;;;;;-145.69;56.37;52329.53;5086350;28;20199;-82
2023/12/06 04:34:10;;;;;;;0.37;0.37;;;;;;;-145.69;56.04;52309.72;5085305;28;20195;-82
2023/12/06 04:36:37;;;;;;;0.50;0.50;;;;;;;-145.69;56.10;52321.59;5087364;28;20214;-82
2023/12/06 04:39:03;;;;;;;0.40;0.40;;;;;;;-145.69;56.12;52301.81;5087318;28;20215;-82
2023/12/06 04:41:30;;;;;;;0.60;0.60;;;;;;;-145.69;56.42;52313.69;5083251;28;20226;-83
2023/12/06 04:43:58;;;;;;;0.40;0.40;;;;;;;-145.69;56.29;52361.22;5088762;28;20205;-83
2023/12/06 04:46:24;;;;;;;0.40;0.40;;;;;;;-145.69;56.32;52321.59;5076639;28;20179;-82
2023/12/06 04:48:51;;;;;;;0.50;0.50;;;;;;;-145.69;56.50;52317.66;5079581;28;20246;-82
2023/12/06 04:51:17;;;;;;;1.80;0.80;;;;;;;-145.69;56.50;52337.44;5087675;28;20206;-82
2023/12/06 04:53:44;;;;;;;0.60;0.60;;;;;;;-145.69;56.74;52301.81;5085054;28;20199;-82
2023/12/06 04:56:12;;;;;;;1.87;0.97;;;;;;;-145.69;56.27;52309.72;5086736;28;20211;-82
2023/12/06 04:58:39;;;;;;;2.17;1.00;;;;;;;-145.69;56.47;52323.59;5087922;28;20226;-82
2023/12/06 05:01:08;;;;;;;0.80;0.80;;;;;;;-145.69;56.53;52353.28;5086503;28;20716;-82
2023/12/06 05:03:35;;;;;;;0.70;0.60;;;;;;;-145.69;56.85;52317.66;5086685;28;20203;-82
2023/12/06 05:06:01;;;;;;;0.70;0.70;;;;;;;-145.69;56.92;52305.75;5087586;28;20664;-82
2023/12/06 05:08:27;;;;;;;0.67;0.67;;;;;;;-145.69;57.11;52307.75;5087205;28;20210;-82
2023/12/06 05:10:54;;;;;;;0.67;0.67;;;;;;;-145.69;56.90;52305.75;5087973;28;20670;-82
2023/12/06 05:13:21;;;;;;;0.70;0.70;;;;;;;-145.69;56.62;52297.84;5087178;28;20232;-82
2023/12/06 05:15:48;;;;;;;1.07;0.97;;;;;;;-145.69;56.56;52309.72;5088021;28;20553;-82
2023/12/06 05:18:16;;;;;;;0.80;0.80;;;;;;;-145.69;56.39;52325.56;5087866;28;20206;-83
2023/12/06 05:20:42;;;;;;;0.97;0.63;;;;;;;-145.69;56.51;52266.16;5086269;28;20237;-83
2023/12/06 05:23:09;;;;;;;0.57;0.57;;;;;;;-145.69;56.31;52309.72;5086754;28;20203;-82
2023/12/06 05:25:35;;;;;;;0.70;0.70;;;;;;;-145.69;56.60;52283.97;5088617;28;20193;-82
2023/12/06 05:28:02;;;;;;;0.60;0.60;;;;;;;-145.69;56.58;52301.81;5088282;28;20197;-82
2023/12/06 05:30:28;;;;;;;0.67;0.67;;;;;;;-145.69;56.33;52307.75;5087066;28;20215;-82
2023/12/06 05:32:55;;;;;;;0.53;0.53;;;;;;;-145.69;56.29;52329.53;5078143;28;20183;-82
2023/12/06 05:35:23;;;;;;;0.80;0.63;;;;;;;-145.69;56.57;52341.41;5086018;28;20213;-82
2023/12/06 05:37:50;;;;;;;0.77;0.77;;;;;;;-145.69;56.09;52329.53;5086296;28;20199;-82
2023/12/06 05:40:17;;;;;;;1.47;0.60;;;;;;;-145.69;56.48;52297.84;5086536;28;20233;-82
2023/12/06 05:42:43;;;;;;;0.80;0.60;;;;;;;-145.69;56.46;52341.41;5087338;28;20279;-82
2023/12/06 05:45:10;;;;;;;0.60;0.60;;;;;;;-145.69;56.45;52313.69;5085928;28;20199;-82
2023/12/06 05:47:37;;;;;;;1.00;0.80;;;;;;;-145.69;55.87;52345.38;5086085;28;20231;-82
2023/12/06 05:50:04;;;;;;;0.77;0.70;;;;;;;-145.69;56.29;52343.38;5085959;28;20218;-83
2023/12/06 05:52:33;;;;;;;0.83;0.80;;;;;;;-145.69;56.14;52285.97;5086689;28;20238;-82
2023/12/06 05:55:00;;;;;;;0.57;0.57;;;;;;;-145.69;56.17;52323.59;5087051;28;20198;-82
2023/12/06 05:57:28;;;;;;;0.83;0.70;;;;;;;-145.69;56.20;52305.75;5085855;28;20206;-82
2023/12/06 05:59:55;;;;;;;0.60;0.60;;;;;;;-145.69;55.84;52297.84;5086589;28;20289;-83
2023/12/06 06:02:21;;;;;;;0.60;0.60;;;;;;;-145.69;55.78;52283.97;5083929;28;20226;-83
2023/12/06 06:04:48;;;;;;;0.60;0.60;;;;;;;-145.69;56.23;52301.81;5066815;28;20226;-83
2023/12/06 06:07:15;;;;;;;0.60;0.50;;;;;;;-145.69;55.96;52305.75;5067583;28;20203;-82
2023/12/06 06:09:43;;;;;;;0.57;0.57;;;;;;;-145.69;55.63;52289.91;5067590;28;20243;-82
2023/12/06 06:12:09;;;;;;;1.90;0.80;;;;;;;-145.69;55.81;52252.28;5067630;28;20214;-82
2023/12/06 06:14:36;;;;;;;0.73;0.70;;;;;;;-145.69;56.14;52333.47;5065350;28;20199;-83
2023/12/06 06:17:03;;;;;;;1.17;0.90;;;;;;;-145.69;55.75;52319.63;5064183;28;20196;-82
2023/12/06 06:19:29;;;;;;;0.77;0.60;;;;;;;-145.69;56.40;52289.91;5065717;28;20196;-83
2023/12/06 06:21:56;;;;;;;0.53;0.53;;;;;;;-145.69;56.23;52317.66;5066501;28;20225;-82
2023/12/06 06:24:22;;;;;;;1.30;0.70;;;;;;;-145.69;55.91;52323.59;5070178;28;20188;-83
2023/12/06 06:26:50;;;;;;;0.77;0.77;;;;;;;-145.69;54.78;52317.66;5069737;28;20206;-83
2023/12/06 06:29:17;;;;;;;0.80;0.60;;;;;;;-145.69;55.37;52278.03;5070165;28;20198;-82
2023/12/06 06:31:44;;;;;;;0.57;0.50;;;;;;;-145.69;56.06;52327.53;5070053;28;20212;-82
2023/12/06 06:34:10;;;;;;;0.77;0.60;;;;;;;-145.69;56.44;52333.47;5068863;28;20282;-82
2023/12/06 06:36:37;;;;;;;1.00;0.90;;;;;;;-145.69;56.21;52307.75;5067559;28;20262;-83
2023/12/06 06:39:04;;;;;;;3.30;1.57;;;;;;;-145.69;56.43;52287.94;5066033;28;20203;-83
2023/12/06 06:41:30;;;;;;;5.10;1.80;;;;;;;-145.69;56.22;52293.88;5079080;28;20222;-83
2023/12/06 06:43:58;;;;;;;1.70;0.87;;;;;;;-145.69;56.39;52285.97;5084322;28;20213;-83
2023/12/06 06:46:24;;;;;;;2.00;1.10;;;;;;;-145.69;56.19;52301.81;5085745;28;20692;-82
2023/12/06 06:48:51;;;;;;;1.47;1.10;;;;;;;-145.69;56.19;52323.59;5088228;28;20225;-82
2023/12/06 06:51:18;;;;;;;1.30;1.00;;;;;;;-145.69;56.00;52327.53;5089549;28;20212;-83
2023/12/06 06:53:44;;;;;;;2.00;1.40;;;;;;;-145.69;56.40;52309.72;5087006;28;20241;-83
2023/12/06 06:56:11;;;;;;;1.23;1.00;;;;;;;-145.69;56.01;52345.38;5088927;28;20198;-82
2023/12/06 06:58:38;;;;;;;1.47;1.10;;;;;;;-145.69;56.25;52301.81;5085417;28;20263;-83
2023/12/06 07:01:06;;;;;;;2.50;1.20;;;;;;;-145.69;55.99;52307.75;5089616;28;20205;-83
2023/12/06 07:03:32;;;;;;;8.40;2.40;;;;;;;-145.69;56.53;52309.72;5088467;28;20629;-83
2023/12/06 07:06:01;;;;;;;1.80;1.03;;;;;;;-145.69;56.48;52325.56;5089566;28;20206;-83
2023/12/06 07:08:29;;;;;;;1.00;0.90;;;;;;;-145.69;56.70;52329.53;5087592;28;20198;-83
2023/12/06 07:10:56;;;;;;;0.83;0.50;;;;;;;-145.69;56.90;52325.56;5080334;28;20222;-83
2023/12/06 07:13:23;;;;;;;1.10;0.93;;;;;;;-145.69;56.60;52301.81;5087260;28;20195;-82
2023/12/06 07:15:49;;;;;;;0.60;0.60;;;;;;;-145.69;56.55;52329.53;5088863;28;20199;-83
2023/12/06 07:18:18;;;;;;;0.97;0.90;;;;;;;-145.69;56.42;52303.78;5087088;28;20203;-83
2023/12/06 07:20:45;;;;;;;1.20;0.80;;;;;;;-145.69;56.26;52335.47;5085704;28;20198;-82
2023/12/06 07:23:11;;;;;;;0.97;0.87;;;;;;;-145.69;56.40;52295.84;5089378;28;20226;-83
2023/12/06 07:25:38;;;;;;;1.07;0.87;;;;;;;-145.69;56.46;52291.91;5092393;28;20207;-82
2023/12/06 07:28:04;;;;;;;1.87;1.00;;;;;;;-145.69;56.65;52313.69;5093072;28;20208;-82
2023/12/06 07:30:31;;;;;;;1.60;0.90;;;;;;;-145.69;56.34;52285.97;5084864;28;20196;-83
2023/12/06 07:32:57;;;;;;;1.53;0.80;;;;;;;-145.69;56.69;52343.38;5074875;28;20202;-82
2023/12/06 07:35:25;;;;;;;3.60;1.07;;;;;;;-145.69;57.11;52341.41;5091302;28;20201;-82
2023/12/06 07:37:52;;;;;;;0.83;0.80;;;;;;;-145.69;57.13;52323.59;5090875;28;20202;-83
2023/12/06 07:40:18;;;;;;;3.03;0.73;;;;;;;-145.69;57.52;52321.59;5091145;28;20202;-83
2023/12/06 07:42:45;;;;;;;2.67;0.80;;;;;;;-145.69;58.22;52309.72;5088989;28;20701;-83
2023/12/06 07:45:11;;;;;;;1.03;0.90;;;;;;;-145.69;57.70;52325.56;5090330;28;20304;-83
2023/12/06 07:47:39;;;;;;;0.80;0.80;;;;;;;-145.69;57.95;52321.59;5090758;28;20202;-83
2023/12/06 07:50:07;;;;;;;1.07;0.77;;;;;;;-145.69;58.29;52289.91;5089813;28;20252;-83
2023/12/06 07:52:35;;;;;;;1.43;1.00;;;;;;;-145.69;58.57;52337.44;5089274;28;20205;-83
2023/12/06 07:55:03;;;;;;;3.17;1.30;;;;;;;-145.69;57.98;52301.81;5072537;28;20263;-83
2023/12/06 07:57:29;;;;;;;1.50;1.10;;;;;;;-145.69;58.39;52297.84;5074346;28;20575;-82
2023/12/06 07:59:56;;;;;;;3.13;1.17;;;;;;;-145.69;58.89;52325.56;5067931;28;20195;-83
2023/12/06 08:02:23;;;;;;;0.83;0.83;;;;;;;-145.69;58.86;52343.38;5072416;28;20721;-83
2023/12/06 08:04:49;;;;;;;0.87;0.87;;;;;;;-145.69;58.88;52282.00;5090109;28;20600;-83
2023/12/06 08:07:16;;;;;;;1.77;1.40;;;;;;;-145.69;58.66;52317.66;5089519;28;20236;-83
2023/12/06 08:09:44;;;;;;;1.67;1.20;;;;;;;-145.69;59.01;52301.81;5089753;28;20222;-83
2023/12/06 08:12:10;;;;;;;1.20;1.00;;;;;;;-145.69;58.46;52303.78;5092982;28;20202;-83
2023/12/06 08:14:40;;;;;;;1.63;1.20;;;;;;;-145.69;58.67;52345.38;5093678;28;20254;-83
2023/12/06 08:17:06;;;;;;;0.90;0.87;;;;;;;-145.69;58.38;52317.66;5086485;28;20650;-84
2023/12/06 08:19:33;;;;;;;1.47;0.97;;;;;;;-145.69;58.47;52343.38;5084623;28;20202;-83
2023/12/06 08:21:59;;;;;;;3.50;1.20;;;;;;;-145.69;58.41;52276.06;5082619;28;20226;-83
2023/12/06 08:24:26;;;;;;;1.70;1.10;;;;;;;-145.69;58.01;52309.72;5082791;28;20199;-83
2023/12/06 08:26:54;;;;;;;1.43;1.20;;;;;;;-145.69;58.33;52337.44;5084409;28;20677;-83
2023/12/06 08:29:20;;;;;;;1.27;1.00;;;;;;;-145.69;57.76;52329.53;5082291;28;20198;-83
2023/12/06 08:31:47;;;;;;;2.70;1.60;;;;;;;-145.69;58.31;52345.38;5083510;28;20202;-83
2023/12/06 08:34:13;;;;;;;2.40;1.53;;;;;;;-145.69;58.61;52293.88;5084137;28;20356;-83
2023/12/06 08:36:44;;;;;;;2.07;1.30;;;;;;;-145.69;57.93;52349.31;5073931;28;20192;-86
2023/12/06 08:39:11;;;;;;;2.47;1.63;;;;;;;-145.69;57.29;52325.56;5082610;28;20199;-84
2023/12/06 08:41:37;;;;;;;3.57;1.40;;;;;;;-145.69;57.34;52289.91;5084252;28;20234;-83
2023/12/06 08:44:07;;;;;;;3.23;1.60;;;;;;;-145.69;57.89;52299.81;5082048;28;20210;-82
2023/12/06 08:46:33;;;;;;;3.00;1.53;;;;;;;-145.69;57.54;52361.22;5082089;28;20222;-82
2023/12/06 08:49:00;;;;;;;1.73;1.60;;;;;;;-145.69;57.33;52343.38;5083159;28;20218;-82
2023/12/06 08:51:27;;;;;;;2.30;1.73;;;;;;;-145.69;57.53;52353.28;5082990;28;20305;-82
2023/12/06 08:53:57;;;;;;;3.97;1.80;;;;;;;-145.69;57.11;52293.88;5078112;28;20214;-83
2023/12/06 08:56:23;;;;;;;1.83;1.47;;;;;;;-145.69;56.57;52317.66;5077923;28;20199;-82
2023/12/06 08:58:50;;;;;;;3.53;1.83;;;;;;;-145.69;56.67;52293.88;5079876;28;20556;-82
2023/12/06 09:01:18;;;;;;;5.00;2.87;;;;;;;-145.69;56.42;52297.84;5081465;28;20203;-82
2023/12/06 09:03:45;;;;;;;2.60;1.73;;;;;;;-145.69;56.60;52329.53;5079850;28;20254;-82
2023/12/06 09:06:12;;;;;;;2.63;1.83;;;;;;;-145.69;56.40;52285.97;5081485;28;20202;-82
2023/12/06 09:08:38;;;;;;;3.07;1.50;;;;;;;-145.69;56.45;52301.81;5080041;28;20294;-81
2023/12/06 09:11:05;;;;;;;3.20;2.10;;;;;;;-145.69;56.35;52315.66;5080800;28;20199;-83
2023/12/06 09:13:31;;;;;;;2.90;2.13;;;;;;;-145.69;56.20;52274.06;5081830;28;20237;-82
2023/12/06 09:15:58;;;;;;;2.97;1.93;;;;;;;-145.69;56.31;52341.41;5079443;28;20199;-81
2023/12/06 09:18:26;;;;;;;2.13;1.70;;;;;;;-145.69;56.85;52285.97;5079622;28;20195;-82
2023/12/06 09:20:53;;;;;;;2.00;1.70;;;;;;;-145.69;56.75;52317.66;5075850;28;20191;-81
2023/12/06 09:23:20;;;;;;;2.67;1.90;;;;;;;-145.69;56.78;52317.66;5078136;28;20222;-82
2023/12/06 09:25:47;;;;;;;5.73;1.80;;;;;;;-145.69;56.80;52297.84;5074944;28;20199;-82
2023/12/06 09:28:14;;;;;;;2.93;2.13;;;;;;;-145.69;56.57;52337.44;5082329;28;20198;-83
2023/12/06 09:30:40;;;;;;;3.83;2.50;;;;;;;-145.69;56.62;52337.44;5077376;28;20221;-82
2023/12/06 09:33:07;;;;;;;7.33;3.80;;;;;;;-145.69;56.74;52327.53;5062605;28;20203;-82
2023/12/06 09:35:35;;;;;;;3.87;2.40;;;;;;;-145.69;57.13;52270.13;5060440;28;20203;-82
2023/12/06 09:38:02;;;;;;;8.47;1.70;;;;;;;-145.69;57.13;52349.31;5062721;28;20222;-83
2023/12/06 09:40:28;;;;;;;11.43;5.80;;;;;;;-145.69;56.75;52287.94;5059873;28;20207;-83
2023/12/06 09:43:01;;;;;;;4.23;2.60;;;;;;;-145.69;56.58;52319.63;5061883;28;20694;-83
2023/12/06 09:45:29;;;;;;;3.60;2.33;;;;;;;-145.69;56.55;52297.84;5057716;28;20222;-83
2023/12/06 09:47:57;;;;;;;4.00;2.40;;;;;;;-145.69;56.75;52301.81;5058004;28;20214;-82
2023/12/06 09:50:24;;;;;;;5.03;1.90;;;;;;;-145.69;56.29;52297.84;5057443;28;20661;-83
2023/12/06 09:52:52;;;;;;;4.43;2.10;;;;;;;-145.69;57.02;52262.19;5056899;28;20237;-83
2023/12/06 09:55:20;;;;;;;2.60;1.70;;;;;;;-145.69;56.65;52321.59;5058179;28;20207;-83
2023/12/06 09:57:48;;;;;;;4.40;2.00;;;;;;;-145.69;56.60;52329.53;5057102;28;20662;-82
2023/12/06 10:00:15;;;;;;;2.63;1.77;;;;;;;-145.69;56.66;52305.75;5058499;28;20196;-83
2023/12/06 10:02:49;;;;;;;7.10;3.80;;;;;;;-145.69;56.32;52297.84;5066396;28;20612;-83
2023/12/06 10:05:16;;;;;;;17.57;6.97;;;;;;;-145.69;56.60;52315.66;5076250;28;20202;-83
2023/12/06 10:07:43;;;;;;;5.67;2.93;;;;;;;-145.69;56.38;52317.66;5076930;28;20206;-83
2023/12/06 10:10:15;;;;;;;4.83;2.40;;;;;;;-145.69;56.33;52301.81;5076848;28;20230;-83
2023/12/06 10:12:46;;;;;;;3.20;1.97;;;;;;;-145.69;55.81;52323.59;5079105;28;20234;-83
2023/12/06 10:15:13;;;;;;;3.97;2.17;;;;;;;-145.69;55.52;52349.31;5081231;28;20199;-83
2023/12/06 10:17:40;;;;;;;4.37;2.40;;;;;;;-145.69;56.60;52333.47;5086731;28;20202;-83
2023/12/06 10:20:08;;;;;;;3.00;2.17;;;;;;;-145.69;56.20;52291.91;5083501;28;20202;-83
2023/12/06 10:22:35;;;;;;;6.70;3.13;;;;;;;-145.69;57.17;52349.31;5082964;28;20218;-83
2023/12/06 10:25:12;;;;;;;4.13;2.00;;;;;;;-145.69;56.98;52337.44;5087006;28;20663;-83
2023/12/06 10:27:43;;;;;;;5.23;3.00;;;;;;;-145.69;57.09;52337.44;5087474;28;20218;-82
2023/12/06 10:30:19;;;;;;;3.83;2.90;;;;;;;-145.69;57.96;52313.69;5085548;28;20199;-83
2023/12/06 10:32:50;;;;;;;4.13;2.63;;;;;;;-145.69;57.92;52323.59;5079084;28;20669;-83
2023/12/06 10:35:21;;;;;;;5.10;3.00;;;;;;;-145.69;57.90;52325.56;5080595;28;20206;-83
2023/12/06 10:37:49;;;;;;;5.20;2.83;;;;;;;-145.69;57.85;52315.66;5089357;28;20203;-81
2023/12/06 10:40:23;;;;;;;5.53;3.13;;;;;;;-145.69;58.08;52321.59;5089266;28;20266;-82
2023/12/06 10:42:58;;;;;;;3.23;2.50;;;;;;;-145.69;58.73;52285.97;5091649;28;20218;-82
2023/12/06 10:45:24;;;;;;;4.10;2.50;;;;;;;-145.69;58.07;52303.78;5091658;28;20569;-82
2023/12/06 10:47:57;;;;;;;4.63;2.83;;;;;;;-145.69;58.25;52280.00;5091950;28;20221;-82
2023/12/06 10:50:29;;;;;;;3.40;2.63;;;;;;;-145.69;57.83;52331.50;5092334;28;20210;-82
2023/12/06 10:52:56;;;;;;;5.90;2.73;;;;;;;-145.69;57.66;52282.00;5090742;28;20195;-83
2023/12/06 10:55:33;;;;;;;4.57;2.70;;;;;;;-145.69;57.06;52299.81;5089137;28;20558;-82
2023/12/06 10:58:06;;;;;;;3.60;2.37;;;;;;;-145.69;56.95;52307.75;5086435;28;20201;-82
2023/12/06 11:00:38;;;;;;;2.97;2.27;;;;;;;-145.69;57.12;52293.88;5086528;28;20233;-82
2023/12/06 11:03:13;;;;;;;4.20;2.47;;;;;;;-145.69;56.50;52335.47;5073739;28;20229;-82
2023/12/06 11:05:46;;;;;;;5.33;2.30;;;;;;;-145.69;56.25;52305.75;5066878;28;20229;-82
2023/12/06 11:08:43;;;;;;;3.53;2.20;;;;;;;-145.69;55.57;52333.47;5069322;28;20234;-82
2023/12/06 11:11:28;;;;;;;2.73;2.13;;;;;;;-145.69;56.07;52301.81;5047286;28;20212;-82
2023/12/06 11:14:14;;;;;;;3.50;2.40;;;;;;;-145.69;56.16;52301.81;5044378;28;20501;-82
2023/12/06 11:16:52;;;;;;;3.87;2.20;;;;;;;-145.69;55.74;52307.75;5043278;28;20240;-82
2023/12/06 11:19:19;;;;;;;2.97;2.07;;;;;;;-145.69;55.77;52301.81;5040881;28;20267;-82